createdAt,value
2018-12-26T00:00:27.005Z,15.70
2018-12-26T00:02:56.556Z,11.50
2018-12-26T00:05:26.373Z,12.37
2018-12-26T00:07:56.408Z,12.67
2018-12-26T00:10:26.197Z,12.17
2018-12-26T00:12:55.901Z,9.77
2018-12-26T00:15:25.546Z,11.60
2018-12-26T00:17:55.486Z,12.97
2018-12-26T00:20:25.007Z,16.37
2018-12-26T00:22:54.873Z,18.60
2018-12-26T00:25:24.941Z,11.73
2018-12-26T00:27:54.589Z,10.43
2018-12-26T00:30:24.335Z,15.60
2018-12-26T00:32:53.950Z,10.20
2018-12-26T00:35:23.593Z,16.33
2018-12-26T00:37:53.167Z,14.67
2018-12-26T00:40:23.123Z,17.57
2018-12-26T00:42:53.284Z,11.87
2018-12-26T00:45:23.213Z,10.30
2018-12-26T00:47:52.853Z,11.13
2018-12-26T00:50:22.632Z,10.20
2018-12-26T00:52:52.213Z,13.53
2018-12-26T00:55:21.979Z,13.67
2018-12-26T00:57:51.894Z,18.00
2018-12-26T01:00:21.574Z,12.90
2018-12-26T01:02:51.311Z,12.53
2018-12-26T01:05:21.307Z,16.07
2018-12-26T01:07:51.390Z,11.93
2018-12-26T01:10:21.214Z,16.17
2018-12-26T01:12:51.365Z,10.63
2018-12-26T01:15:21.040Z,16.73
2018-12-26T01:17:50.976Z,14.17
2018-12-26T01:20:20.992Z,11.73
2018-12-26T01:22:50.577Z,13.30
2018-12-26T01:25:20.284Z,14.33
2018-12-26T01:27:49.935Z,10.30
2018-12-26T01:30:19.516Z,12.97
2018-12-26T01:32:49.548Z,15.30
2018-12-26T01:35:19.209Z,9.80
2018-12-26T01:37:49.004Z,13.13
2018-12-26T01:40:18.704Z,11.47
2018-12-26T01:42:48.279Z,13.87
2018-12-26T01:45:18.006Z,13.50
2018-12-26T01:47:47.738Z,9.43
2018-12-26T01:50:18.929Z,11.43
2018-12-26T01:52:48.997Z,13.87
2018-12-26T01:55:18.865Z,11.73
2018-12-26T01:57:48.475Z,11.60
2018-12-26T02:00:18.066Z,9.47
2018-12-26T02:02:47.837Z,11.53
2018-12-26T02:05:17.936Z,16.57
2018-12-26T02:07:47.520Z,13.03
2018-12-26T02:10:17.252Z,9.97
2018-12-26T02:12:46.905Z,12.73
2018-12-26T02:15:16.684Z,19.03
2018-12-26T02:17:46.586Z,12.50
2018-12-26T02:20:16.162Z,11.70
2018-12-26T02:22:45.681Z,9.93
2018-12-26T02:25:15.427Z,10.97
2018-12-26T02:27:44.945Z,13.33
2018-12-26T02:30:14.535Z,15.27
2018-12-26T02:32:44.166Z,12.17
2018-12-26T02:35:13.693Z,9.67
2018-12-26T02:37:43.177Z,11.30
2018-12-26T02:40:12.751Z,15.33
2018-12-26T02:42:42.267Z,11.77
2018-12-26T02:45:11.779Z,14.37
2018-12-26T02:47:41.224Z,13.83
2018-12-26T02:50:11.168Z,10.67
2018-12-26T02:52:40.687Z,11.80
2018-12-26T02:55:10.262Z,12.10
2018-12-26T02:57:39.715Z,11.50
2018-12-26T03:00:09.939Z,9.50
2018-12-26T03:02:39.387Z,12.40
2018-12-26T03:05:08.842Z,11.03
2018-12-26T03:07:38.449Z,9.97
2018-12-26T03:10:08.611Z,11.50
2018-12-26T03:12:38.066Z,12.60
2018-12-26T03:15:08.975Z,14.43
2018-12-26T03:17:38.631Z,10.27
2018-12-26T03:20:08.218Z,10.00
2018-12-26T03:22:37.807Z,12.90
2018-12-26T03:25:07.345Z,10.70
2018-12-26T03:27:37.005Z,13.13
2018-12-26T03:30:08.957Z,11.53
2018-12-26T03:32:38.396Z,14.53
2018-12-26T03:35:08.070Z,13.43
2018-12-26T03:37:37.591Z,12.43
2018-12-26T03:40:09.122Z,12.30
2018-12-26T03:42:38.575Z,16.90
2018-12-26T03:45:08.085Z,10.17
2018-12-26T03:47:38.650Z,10.10
2018-12-26T03:50:09.305Z,13.47
2018-12-26T03:52:39.175Z,15.27
2018-12-26T03:55:08.700Z,10.60
2018-12-26T03:57:38.283Z,11.63
2018-12-26T04:00:10.620Z,12.17
2018-12-26T04:02:40.093Z,10.90
2018-12-26T04:05:09.551Z,14.33
2018-12-26T04:07:39.140Z,12.23
2018-12-26T04:10:08.693Z,20.87
2018-12-26T04:12:38.584Z,17.20
2018-12-26T04:15:08.177Z,12.30
2018-12-26T04:17:38.071Z,12.20
2018-12-26T04:20:07.765Z,13.70
2018-12-26T04:22:37.460Z,13.33
2018-12-26T04:25:07.012Z,15.17
2018-12-26T04:27:36.465Z,16.40
2018-12-26T04:30:09.926Z,14.70
2018-12-26T04:32:39.434Z,13.03
2018-12-26T04:35:09.121Z,17.47
2018-12-26T04:37:38.580Z,12.87
2018-12-26T04:40:08.309Z,12.43
2018-12-26T04:42:37.762Z,11.80
2018-12-26T04:45:07.531Z,12.80
2018-12-26T04:47:37.160Z,14.23
2018-12-26T04:50:07.158Z,11.60
2018-12-26T04:52:36.853Z,14.10
2018-12-26T04:55:06.859Z,14.90
2018-12-26T04:57:36.365Z,11.50
2018-12-26T05:00:07.466Z,15.67
2018-12-26T05:02:37.035Z,14.80
2018-12-26T05:05:06.721Z,11.00
2018-12-26T05:07:36.243Z,11.57
2018-12-26T05:10:07.544Z,13.70
2018-12-26T05:12:56.399Z,13.40
2018-12-26T05:15:25.967Z,21.17
2018-12-26T05:17:57.205Z,15.87
2018-12-26T05:20:26.793Z,13.80
2018-12-26T05:22:56.515Z,13.53
2018-12-26T05:25:25.973Z,12.00
2018-12-26T05:27:55.423Z,15.93
2018-12-26T05:30:24.907Z,15.40
2018-12-26T05:32:54.430Z,13.30
2018-12-26T05:35:23.913Z,12.97
2018-12-26T05:37:53.383Z,15.07
2018-12-26T05:40:22.913Z,13.70
2018-12-26T05:42:52.378Z,13.30
2018-12-26T05:45:21.982Z,13.77
2018-12-26T05:47:51.577Z,15.83
2018-12-26T05:50:21.036Z,15.40
2018-12-26T05:52:50.531Z,21.40
2018-12-26T05:55:19.984Z,14.73
2018-12-26T05:57:49.451Z,18.30
2018-12-26T06:00:19.040Z,16.60
2018-12-26T06:02:48.530Z,15.13
2018-12-26T06:05:17.990Z,16.00
2018-12-26T06:07:47.538Z,15.50
2018-12-26T06:10:16.983Z,16.17
2018-12-26T06:12:46.601Z,17.43
2018-12-26T06:15:16.107Z,15.10
2018-12-26T06:17:45.578Z,16.87
2018-12-26T06:20:15.321Z,17.80
2018-12-26T06:22:44.803Z,16.60
2018-12-26T06:25:14.268Z,22.13
2018-12-26T06:27:51.204Z,17.07
2018-12-26T06:30:15.114Z,18.33
2018-12-26T06:32:44.563Z,17.73
2018-12-26T06:35:14.092Z,17.00
2018-12-26T06:37:43.601Z,19.77
2018-12-26T06:40:13.125Z,15.00
2018-12-26T06:42:42.663Z,18.23
2018-12-26T06:45:12.167Z,16.30
2018-12-26T06:47:43.157Z,19.10
2018-12-26T06:50:12.617Z,17.10
2018-12-26T06:52:42.252Z,18.33
2018-12-26T06:55:11.702Z,15.07
2018-12-26T06:57:41.238Z,16.20
2018-12-26T07:00:10.718Z,17.63
2018-12-26T07:02:40.173Z,16.10
2018-12-26T07:05:09.758Z,16.00
2018-12-26T07:07:39.527Z,19.30
2018-12-26T07:10:09.389Z,22.03
2018-12-26T07:12:38.838Z,19.97
2018-12-26T07:15:08.464Z,23.10
2018-12-26T07:17:37.930Z,18.03
2018-12-26T07:20:07.694Z,22.23
2018-12-26T07:22:37.174Z,21.50
2018-12-26T07:25:06.906Z,17.90
2018-12-26T07:27:36.517Z,15.00
2018-12-26T07:30:06.952Z,19.77
2018-12-26T07:32:36.516Z,19.90
2018-12-26T07:35:06.111Z,19.47
2018-12-26T07:37:35.659Z,23.07
2018-12-26T07:40:05.934Z,20.00
2018-12-26T07:42:35.398Z,22.97
2018-12-26T07:45:08.388Z,17.93
2018-12-26T07:47:37.997Z,21.47
2018-12-26T07:50:08.971Z,28.10
2018-12-26T07:52:38.462Z,21.53
2018-12-26T07:55:08.046Z,20.63
2018-12-26T07:57:37.554Z,20.50
2018-12-26T08:00:10.157Z,17.83
2018-12-26T08:02:39.617Z,28.10
2018-12-26T08:05:10.596Z,27.90
2018-12-26T08:07:40.170Z,20.70
2018-12-26T08:10:09.767Z,24.30
2018-12-26T08:12:40.199Z,23.30
2018-12-26T08:15:10.833Z,17.83
2018-12-26T08:17:40.521Z,19.80
2018-12-26T08:20:10.167Z,21.93
2018-12-26T08:22:39.655Z,26.90
2018-12-26T08:25:09.121Z,23.20
2018-12-26T08:27:38.577Z,25.70
2018-12-26T11:18:37.528Z,24.37
2018-12-26T11:21:07.021Z,29.27
2018-12-26T11:23:36.472Z,30.80
2018-12-26T11:26:06.003Z,25.97
2018-12-26T11:28:35.449Z,26.87
2018-12-26T11:31:04.906Z,28.20
2018-12-26T11:33:34.399Z,23.23
2018-12-26T11:36:03.843Z,25.90
2018-12-26T11:38:33.464Z,32.40
2018-12-26T11:41:05.157Z,29.73
2018-12-26T11:43:34.131Z,25.90
2018-12-26T11:46:03.655Z,25.33
2018-12-26T11:48:33.166Z,27.17
2018-12-26T11:51:02.687Z,26.33
2018-12-26T11:53:32.150Z,26.83
2018-12-26T11:56:01.643Z,27.47
2018-12-26T11:58:31.113Z,29.43
2018-12-26T12:01:00.642Z,28.60
2018-12-26T12:03:30.315Z,26.47
2018-12-26T12:06:00.010Z,26.20
2018-12-26T12:08:29.475Z,27.70
2018-12-26T12:10:58.962Z,22.13
2018-12-26T12:13:28.557Z,21.40
2018-12-26T12:15:58.156Z,27.00
2018-12-26T12:18:47.042Z,24.97
2018-12-26T12:21:16.494Z,26.73
2018-12-26T12:23:45.959Z,27.00
2018-12-26T12:26:15.520Z,21.20
2018-12-26T12:28:44.973Z,22.50
2018-12-26T12:31:14.437Z,27.87
2018-12-26T12:33:43.928Z,27.70
2018-12-26T12:36:13.454Z,25.00
2018-12-26T12:38:43.031Z,23.70
2018-12-26T12:41:13.481Z,24.80
2018-12-26T12:43:42.938Z,26.87
2018-12-26T12:46:12.389Z,22.53
2018-12-26T12:48:41.887Z,24.03
2018-12-26T12:51:11.339Z,25.03
2018-12-26T12:53:40.852Z,26.87
2018-12-26T12:56:12.201Z,25.53
2018-12-26T12:58:41.574Z,28.60
2018-12-26T13:01:11.123Z,30.10
2018-12-26T13:03:46.567Z,23.67
2018-12-26T13:06:12.695Z,29.17
2018-12-26T13:08:42.161Z,24.30
2018-12-26T13:11:11.673Z,24.77
2018-12-26T13:13:41.121Z,22.50
2018-12-26T13:16:10.602Z,25.43
2018-12-26T13:18:40.131Z,19.90
2018-12-26T13:21:09.590Z,23.97
2018-12-26T13:23:39.038Z,23.57
2018-12-26T13:26:08.528Z,28.33
2018-12-26T13:28:37.986Z,19.33
2018-12-26T13:31:07.445Z,26.37
2018-12-26T13:33:37.004Z,29.43
2018-12-26T13:36:06.466Z,24.40
2018-12-26T13:38:35.922Z,30.17
2018-12-26T13:41:05.550Z,24.80
2018-12-26T13:43:35.013Z,28.90
2018-12-26T13:46:04.550Z,25.23
2018-12-26T13:48:34.028Z,23.63
2018-12-26T13:51:03.474Z,24.53
2018-12-26T13:53:32.934Z,21.90
2018-12-26T13:56:02.429Z,26.80
2018-12-26T13:58:31.876Z,25.50
2018-12-26T14:01:01.331Z,23.93
2018-12-26T14:03:30.891Z,27.10
2018-12-26T14:06:00.351Z,28.93
2018-12-26T14:08:29.812Z,28.50
2018-12-26T14:10:59.299Z,31.00
2018-12-26T14:13:28.759Z,24.30
2018-12-26T14:15:58.352Z,31.10
2018-12-26T14:18:27.836Z,29.80
2018-12-26T14:20:57.298Z,33.27
2018-12-26T14:23:26.922Z,27.37
2018-12-26T14:25:56.486Z,27.80
2018-12-26T14:28:25.933Z,30.70
2018-12-26T14:30:55.384Z,30.33
2018-12-26T14:33:24.925Z,35.27
2018-12-26T14:35:57.939Z,30.03
2018-12-26T14:38:27.653Z,39.90
2018-12-26T14:40:57.156Z,28.43
2018-12-26T14:43:26.611Z,29.63
2018-12-26T14:45:56.351Z,28.47
2018-12-26T14:48:25.861Z,28.83
2018-12-26T14:50:55.310Z,29.53
2018-12-26T14:53:24.762Z,27.63
2018-12-26T14:55:54.270Z,30.30
2018-12-26T14:58:23.722Z,28.67
2018-12-26T15:00:53.175Z,28.77
2018-12-26T15:03:22.742Z,25.70
2018-12-26T15:05:52.366Z,27.90
2018-12-26T15:08:21.860Z,30.50
2018-12-26T15:10:51.772Z,33.30
2018-12-26T15:13:21.227Z,31.07
2018-12-26T15:15:50.691Z,30.30
2018-12-26T15:18:20.194Z,32.33
2018-12-26T15:20:49.631Z,22.70
2018-12-26T15:23:19.077Z,30.43
2018-12-26T15:25:48.572Z,27.73
2018-12-26T15:28:18.028Z,24.90
2018-12-26T15:30:47.482Z,31.80
2018-12-26T15:33:16.971Z,20.60
2018-12-26T15:35:46.442Z,28.43
2018-12-26T15:38:15.898Z,27.77
2018-12-26T15:40:45.392Z,28.27
2018-12-26T15:43:14.846Z,28.80
2018-12-26T15:45:44.297Z,33.97
2018-12-26T15:48:13.782Z,27.50
2018-12-26T15:50:43.257Z,26.73
2018-12-26T15:53:12.710Z,27.00
2018-12-26T15:55:42.189Z,30.33
2018-12-26T15:58:11.655Z,28.57
2018-12-26T16:00:41.116Z,28.20
2018-12-26T16:03:10.622Z,26.93
2018-12-26T16:05:40.071Z,27.57
2018-12-26T16:08:09.526Z,25.13
2018-12-26T16:10:39.040Z,25.87
2018-12-26T16:13:08.489Z,25.97
2018-12-26T16:15:37.953Z,23.70
2018-12-26T16:18:07.443Z,28.70
2018-12-26T16:20:36.901Z,22.17
2018-12-26T16:23:06.357Z,17.73
2018-12-26T16:25:35.847Z,25.00
2018-12-26T16:28:05.314Z,25.20
2018-12-26T16:30:34.778Z,24.50
2018-12-26T16:33:04.250Z,23.37
2018-12-26T16:35:33.698Z,26.03
2018-12-26T16:38:03.143Z,12.63
2018-12-26T16:40:32.637Z,20.77
2018-12-26T16:43:02.090Z,22.30
2018-12-26T16:45:31.561Z,28.17
2018-12-26T16:48:01.047Z,20.43
2018-12-26T16:50:30.575Z,22.23
2018-12-26T16:53:00.028Z,24.37
2018-12-26T16:55:29.598Z,23.40
2018-12-26T16:57:59.088Z,29.20
2018-12-26T17:00:28.540Z,20.00
2018-12-26T17:02:58.077Z,23.13
2018-12-26T17:05:27.536Z,22.87
2018-12-26T17:07:56.992Z,21.97
2018-12-26T17:10:26.478Z,19.33
2018-12-26T17:12:55.929Z,20.57
2018-12-26T17:15:25.388Z,20.37
2018-12-26T17:17:54.893Z,19.60
2018-12-26T17:20:24.353Z,17.37
2018-12-26T17:22:53.808Z,20.57
2018-12-26T17:25:23.289Z,24.70
2018-12-26T17:27:52.824Z,28.87
2018-12-26T17:30:22.283Z,22.57
2018-12-26T17:33:00.371Z,16.57
2018-12-26T17:35:22.956Z,31.00
2018-12-26T17:37:52.585Z,19.63
2018-12-26T17:40:22.096Z,23.63
2018-12-26T17:42:51.543Z,16.57
2018-12-26T17:45:23.266Z,24.63
2018-12-26T17:47:52.794Z,22.97
2018-12-26T17:50:46.281Z,24.43
2018-12-26T17:53:26.101Z,20.27
2018-12-26T17:56:12.118Z,21.67
2018-12-26T17:58:55.215Z,26.10
2018-12-26T18:01:53.194Z,27.57
2018-12-26T18:04:24.527Z,24.37
2018-12-26T18:06:53.977Z,21.73
2018-12-26T18:09:23.436Z,25.63
2018-12-26T18:11:52.923Z,25.60
2018-12-26T18:14:22.374Z,22.83
2018-12-26T18:16:51.825Z,22.93
2018-12-26T18:19:21.323Z,18.87
2018-12-26T18:21:51.953Z,23.70
2018-12-26T18:24:21.407Z,23.17
2018-12-26T18:26:50.917Z,22.40
2018-12-26T18:29:20.447Z,23.67
2018-12-26T18:31:49.899Z,22.00
2018-12-26T18:34:19.388Z,20.70
2018-12-26T18:36:48.840Z,21.57
2018-12-26T18:39:18.297Z,19.90
2018-12-26T18:41:48.024Z,19.83
2018-12-26T18:44:17.744Z,19.30
2018-12-26T18:46:47.205Z,23.77
2018-12-26T18:49:16.734Z,23.63
2018-12-26T18:51:46.191Z,19.37
2018-12-26T18:54:15.651Z,19.23
2018-12-26T18:56:45.151Z,20.90
2018-12-26T18:59:14.628Z,19.50
2018-12-26T19:01:44.093Z,22.30
2018-12-26T19:04:13.589Z,20.33
2018-12-26T19:06:43.046Z,33.50
2018-12-26T19:09:12.566Z,21.43
2018-12-26T19:11:42.039Z,18.83
2018-12-26T19:14:13.130Z,22.70
2018-12-26T19:16:42.756Z,23.70
2018-12-26T19:19:12.310Z,37.47
2018-12-26T19:21:41.876Z,24.83
2018-12-26T19:24:11.835Z,21.00
2018-12-26T19:26:41.393Z,22.70
2018-12-26T19:29:10.843Z,23.80
2018-12-26T19:31:40.301Z,24.90
2018-12-26T19:34:09.812Z,24.93
2018-12-26T19:36:39.268Z,23.60
2018-12-26T19:39:08.728Z,24.40
2018-12-26T19:41:38.222Z,22.27
2018-12-26T19:44:07.669Z,18.70
2018-12-26T19:46:37.146Z,25.80
2018-12-26T19:49:06.656Z,24.53
2018-12-26T19:51:36.104Z,18.10
2018-12-26T19:54:05.568Z,18.50
2018-12-26T19:56:35.100Z,22.10
2018-12-26T19:59:04.640Z,27.30
2018-12-26T20:01:34.161Z,27.60
2018-12-26T20:04:03.688Z,22.97
2018-12-26T20:06:33.152Z,21.57
2018-12-26T20:09:02.641Z,22.47
2018-12-26T20:11:32.087Z,19.40
2018-12-26T20:14:01.543Z,18.07
2018-12-26T20:16:31.238Z,21.83
2018-12-26T20:19:02.259Z,21.67
2018-12-26T20:21:31.718Z,22.43
2018-12-26T20:24:01.232Z,19.87
2018-12-26T20:26:30.703Z,24.50
2018-12-26T20:29:00.154Z,19.20
2018-12-26T20:31:29.631Z,20.23
2018-12-26T20:33:59.086Z,22.90
2018-12-26T20:36:28.555Z,20.47
2018-12-26T20:38:58.081Z,23.30
2018-12-26T20:41:27.538Z,23.97
2018-12-26T20:43:57.148Z,20.60
2018-12-26T20:46:26.613Z,21.13
2018-12-26T20:48:56.125Z,18.20
2018-12-26T20:51:25.573Z,24.00
2018-12-26T20:53:55.036Z,20.97
2018-12-26T20:56:24.589Z,18.33
2018-12-26T20:58:54.040Z,21.67
2018-12-26T21:01:23.498Z,21.93
2018-12-26T21:03:52.991Z,22.77
2018-12-26T21:06:22.449Z,26.80
2018-12-26T21:08:51.912Z,26.07
2018-12-26T21:11:21.392Z,26.00
2018-12-26T21:13:50.846Z,26.17
2018-12-26T21:16:20.303Z,25.27
2018-12-26T21:18:49.836Z,22.93
2018-12-26T21:21:19.341Z,30.37
2018-12-26T21:23:49.076Z,26.37
2018-12-26T21:26:18.529Z,27.50
2018-12-26T21:28:48.034Z,29.67
2018-12-26T21:31:17.489Z,26.00
2018-12-26T21:33:47.013Z,31.60
2018-12-26T21:36:16.522Z,24.70
2018-12-26T21:38:46.124Z,31.80
2018-12-26T21:41:16.642Z,33.43
2018-12-26T21:43:47.794Z,31.43
2018-12-26T21:46:17.070Z,36.07
2018-12-26T21:48:46.545Z,31.53
2018-12-26T21:51:16.063Z,23.27
2018-12-26T21:53:45.521Z,23.97
2018-12-26T21:56:14.979Z,25.03
2018-12-26T21:58:44.469Z,24.33
2018-12-26T22:01:13.918Z,21.63
2018-12-26T22:03:43.379Z,22.80
2018-12-26T22:06:12.855Z,23.33
2018-12-26T22:08:42.305Z,24.10
2018-12-26T22:11:11.867Z,21.80
2018-12-26T22:13:41.335Z,27.00
2018-12-26T22:16:10.841Z,23.57
2018-12-26T22:18:40.309Z,26.33
2018-12-26T22:21:10.954Z,25.70
2018-12-26T22:23:40.416Z,24.67
2018-12-26T22:26:09.864Z,28.63
2018-12-26T22:28:39.400Z,27.63
2018-12-26T22:31:08.857Z,26.67
2018-12-26T22:33:38.316Z,23.90
2018-12-26T22:36:07.839Z,29.77
2018-12-26T22:38:37.361Z,28.30
2018-12-26T22:41:06.880Z,31.30
2018-12-26T22:43:36.342Z,31.20
2018-12-26T22:46:05.865Z,27.20
2018-12-26T22:48:35.336Z,27.20
2018-12-26T22:51:04.865Z,30.03
2018-12-26T22:53:34.526Z,30.33
2018-12-26T22:56:03.974Z,25.17
2018-12-26T22:58:33.455Z,26.30
2018-12-26T23:01:03.136Z,27.10
2018-12-26T23:03:32.593Z,28.43
2018-12-26T23:06:04.617Z,26.50
2018-12-26T23:08:34.152Z,28.80
2018-12-26T23:11:03.600Z,25.27
2018-12-26T23:13:33.049Z,27.93
2018-12-26T23:16:02.767Z,29.50
2018-12-26T23:18:32.181Z,29.97
2018-12-26T23:21:01.629Z,30.00
2018-12-26T23:23:31.093Z,30.60
2018-12-26T23:26:00.649Z,27.00
2018-12-26T23:28:30.174Z,28.73
2018-12-26T23:30:59.642Z,28.37
2018-12-26T23:33:29.092Z,29.10
2018-12-26T23:35:58.691Z,29.17
2018-12-26T23:38:28.148Z,29.20
2018-12-26T23:40:57.677Z,27.93
2018-12-26T23:43:27.246Z,31.40
2018-12-26T23:45:56.767Z,29.40
2018-12-26T23:48:26.287Z,33.40
2018-12-26T23:50:55.743Z,31.83
2018-12-26T23:53:25.284Z,32.53
2018-12-26T23:55:54.754Z,32.03
2018-12-26T23:58:24.286Z,27.40
